sensor_id;sensor_type;location;lat;lon;timestamp;pressure;altitude;pressure_sealevel;temperature
68952;BMP180;56000;51.146;17.112;2023-03-08T00:01:46;98423.60;;;2.20
68952;BMP180;56000;51.146;17.112;2023-03-08T00:04:16;98424.80;;;2.10
68952;BMP180;56000;51.146;17.112;2023-03-08T00:06:46;98431.20;;;2.00
68952;BMP180;56000;51.146;17.112;2023-03-08T00:09:16;98437.00;;;2.00
68952;BMP180;56000;51.146;17.112;2023-03-08T00:11:45;98432.40;;;1.90
68952;BMP180;56000;51.146;17.112;2023-03-08T00:14:15;98435.00;;;1.90
68952;BMP180;56000;51.146;17.112;2023-03-08T00:16:46;98435.20;;;1.84
68952;BMP180;56000;51.146;17.112;2023-03-08T00:19:17;98444.00;;;1.80
68952;BMP180;56000;51.146;17.112;2023-03-08T00:21:47;98439.60;;;1.80
68952;BMP180;56000;51.146;17.112;2023-03-08T00:24:17;98444.60;;;1.80
68952;BMP180;56000;51.146;17.112;2023-03-08T00:26:46;98449.00;;;1.76
68952;BMP180;56000;51.146;17.112;2023-03-08T00:29:16;98441.00;;;1.70
68952;BMP180;56000;51.146;17.112;2023-03-08T00:31:46;98441.00;;;1.70
68952;BMP180;56000;51.146;17.112;2023-03-08T00:34:16;98451.60;;;1.70
68952;BMP180;56000;51.146;17.112;2023-03-08T00:36:46;98440.80;;;1.68
68952;BMP180;56000;51.146;17.112;2023-03-08T00:39:19;98436.40;;;1.60
68952;BMP180;56000;51.146;17.112;2023-03-08T00:41:48;98437.60;;;1.60
68952;BMP180;56000;51.146;17.112;2023-03-08T00:44:18;98441.40;;;1.60
68952;BMP180;56000;51.146;17.112;2023-03-08T00:46:48;98444.80;;;1.60
68952;BMP180;56000;51.146;17.112;2023-03-08T00:49:18;98443.80;;;1.60
68952;BMP180;56000;51.146;17.112;2023-03-08T00:51:48;98450.60;;;1.58
68952;BMP180;56000;51.146;17.112;2023-03-08T00:54:18;98443.40;;;1.50
68952;BMP180;56000;51.146;17.112;2023-03-08T00:56:48;98447.20;;;1.50
68952;BMP180;56000;51.146;17.112;2023-03-08T00:59:18;98450.80;;;1.50
68952;BMP180;56000;51.146;17.112;2023-03-08T01:01:48;98457.60;;;1.50
68952;BMP180;56000;51.146;17.112;2023-03-08T01:04:18;98461.20;;;1.50
68952;BMP180;56000;51.146;17.112;2023-03-08T01:06:48;98464.20;;;1.50
68952;BMP180;56000;51.146;17.112;2023-03-08T01:09:17;98469.40;;;1.50
68952;BMP180;56000;51.146;17.112;2023-03-08T01:11:47;98470.20;;;1.50
68952;BMP180;56000;51.146;17.112;2023-03-08T01:14:17;98471.80;;;1.50
68952;BMP180;56000;51.146;17.112;2023-03-08T01:16:47;98477.00;;;1.50
68952;BMP180;56000;51.146;17.112;2023-03-08T01:19:17;98476.00;;;1.50
68952;BMP180;56000;51.146;17.112;2023-03-08T01:21:47;98480.60;;;1.50
68952;BMP180;56000;51.146;17.112;2023-03-08T01:24:17;98486.80;;;1.50
68952;BMP180;56000;51.146;17.112;2023-03-08T01:26:46;98484.80;;;1.50
68952;BMP180;56000;51.146;17.112;2023-03-08T01:29:16;98485.60;;;1.50
68952;BMP180;56000;51.146;17.112;2023-03-08T01:31:46;98481.60;;;1.50
68952;BMP180;56000;51.146;17.112;2023-03-08T01:34:16;98479.20;;;1.50
68952;BMP180;56000;51.146;17.112;2023-03-08T01:36:45;98478.20;;;1.50
68952;BMP180;56000;51.146;17.112;2023-03-08T01:39:19;98475.40;;;1.50
68952;BMP180;56000;51.146;17.112;2023-03-08T01:41:48;98472.80;;;1.50
68952;BMP180;56000;51.146;17.112;2023-03-08T01:44:20;98476.60;;;1.50
68952;BMP180;56000;51.146;17.112;2023-03-08T01:46:52;98477.80;;;1.50
68952;BMP180;56000;51.146;17.112;2023-03-08T01:49:40;98490.20;;;1.50
68952;BMP180;56000;51.146;17.112;2023-03-08T01:52:12;98493.20;;;1.50
68952;BMP180;56000;51.146;17.112;2023-03-08T01:54:45;98498.40;;;1.50
68952;BMP180;56000;51.146;17.112;2023-03-08T01:57:21;98498.60;;;1.46
68952;BMP180;56000;51.146;17.112;2023-03-08T01:59:56;98502.60;;;1.40
68952;BMP180;56000;51.146;17.112;2023-03-08T02:02:33;98511.60;;;1.40
68952;BMP180;56000;51.146;17.112;2023-03-08T02:05:07;98520.40;;;1.40
68952;BMP180;56000;51.146;17.112;2023-03-08T02:07:39;98520.00;;;1.40
68952;BMP180;56000;51.146;17.112;2023-03-08T02:10:11;98521.40;;;1.36
68952;BMP180;56000;51.146;17.112;2023-03-08T02:12:41;98524.20;;;1.34
68952;BMP180;56000;51.146;17.112;2023-03-08T02:15:14;98515.00;;;1.30
68952;BMP180;56000;51.146;17.112;2023-03-08T02:17:48;98518.40;;;1.30
68952;BMP180;56000;51.146;17.112;2023-03-08T02:20:22;98530.00;;;1.30
68952;BMP180;56000;51.146;17.112;2023-03-08T02:22:54;98529.40;;;1.20
68952;BMP180;56000;51.146;17.112;2023-03-08T02:25:25;98528.80;;;1.20
68952;BMP180;56000;51.146;17.112;2023-03-08T02:27:55;98526.20;;;1.20
68952;BMP180;56000;51.146;17.112;2023-03-08T02:30:30;98522.60;;;1.20
68952;BMP180;56000;51.146;17.112;2023-03-08T02:33:04;98522.00;;;1.20
68952;BMP180;56000;51.146;17.112;2023-03-08T02:35:35;98525.80;;;1.20
68952;BMP180;56000;51.146;17.112;2023-03-08T02:38:06;98527.00;;;1.16
68952;BMP180;56000;51.146;17.112;2023-03-08T02:40:36;98536.80;;;1.16
68952;BMP180;56000;51.146;17.112;2023-03-08T02:43:06;98535.20;;;1.14
68952;BMP180;56000;51.146;17.112;2023-03-08T02:45:36;98542.60;;;1.10
68952;BMP180;56000;51.146;17.112;2023-03-08T02:48:07;98545.80;;;1.10
68952;BMP180;56000;51.146;17.112;2023-03-08T02:50:37;98558.20;;;1.10
68952;BMP180;56000;51.146;17.112;2023-03-08T02:53:07;98564.60;;;1.10
68952;BMP180;56000;51.146;17.112;2023-03-08T02:55:37;98554.00;;;1.10
68952;BMP180;56000;51.146;17.112;2023-03-08T02:58:12;98562.40;;;1.10
68952;BMP180;56000;51.146;17.112;2023-03-08T03:00:41;98559.40;;;1.10
68952;BMP180;56000;51.146;17.112;2023-03-08T03:03:11;98562.20;;;1.02
68952;BMP180;56000;51.146;17.112;2023-03-08T03:05:44;98569.80;;;1.00
68952;BMP180;56000;51.146;17.112;2023-03-08T03:08:17;98567.60;;;1.00
68952;BMP180;56000;51.146;17.112;2023-03-08T03:10:47;98564.20;;;1.00
68952;BMP180;56000;51.146;17.112;2023-03-08T03:13:17;98565.40;;;1.00
68952;BMP180;56000;51.146;17.112;2023-03-08T03:15:48;98565.00;;;1.00
68952;BMP180;56000;51.146;17.112;2023-03-08T03:18:18;98566.20;;;1.00
68952;BMP180;56000;51.146;17.112;2023-03-08T03:20:48;98570.80;;;1.00
68952;BMP180;56000;51.146;17.112;2023-03-08T03:23:18;98571.60;;;1.00
68952;BMP180;56000;51.146;17.112;2023-03-08T03:25:53;98573.20;;;1.00
68952;BMP180;56000;51.146;17.112;2023-03-08T03:28:23;98580.80;;;1.00
68952;BMP180;56000;51.146;17.112;2023-03-08T03:30:53;98590.40;;;1.00
68952;BMP180;56000;51.146;17.112;2023-03-08T03:33:24;98592.20;;;1.00
68952;BMP180;56000;51.146;17.112;2023-03-08T03:35:54;98591.80;;;1.00
68952;BMP180;56000;51.146;17.112;2023-03-08T03:38:23;98595.40;;;1.00
68952;BMP180;56000;51.146;17.112;2023-03-08T03:41:01;98601.60;;;1.00
68952;BMP180;56000;51.146;17.112;2023-03-08T03:43:32;98599.60;;;1.00
68952;BMP180;56000;51.146;17.112;2023-03-08T03:46:05;98599.40;;;1.00
68952;BMP180;56000;51.146;17.112;2023-03-08T03:48:36;98600.20;;;1.00
68952;BMP180;56000;51.146;17.112;2023-03-08T03:51:10;98606.20;;;1.08
68952;BMP180;56000;51.146;17.112;2023-03-08T03:53:42;98605.80;;;1.10
68952;BMP180;56000;51.146;17.112;2023-03-08T03:56:15;98605.00;;;1.10
68952;BMP180;56000;51.146;17.112;2023-03-08T03:58:45;98604.60;;;1.10
68952;BMP180;56000;51.146;17.112;2023-03-08T04:01:20;98612.80;;;1.08
68952;BMP180;56000;51.146;17.112;2023-03-08T04:03:54;98618.20;;;1.10
68952;BMP180;56000;51.146;17.112;2023-03-08T04:06:27;98623.20;;;1.10
68952;BMP180;56000;51.146;17.112;2023-03-08T04:09:00;98616.80;;;1.10
68952;BMP180;56000;51.146;17.112;2023-03-08T04:11:35;98615.40;;;1.10
68952;BMP180;56000;51.146;17.112;2023-03-08T04:14:06;98623.60;;;1.10
68952;BMP180;56000;51.146;17.112;2023-03-08T04:16:38;98631.00;;;1.10
68952;BMP180;56000;51.146;17.112;2023-03-08T04:19:13;98638.20;;;1.10
68952;BMP180;56000;51.146;17.112;2023-03-08T04:21:49;98643.20;;;1.10
68952;BMP180;56000;51.146;17.112;2023-03-08T04:24:18;98645.00;;;1.10
68952;BMP180;56000;51.146;17.112;2023-03-08T04:26:49;98648.20;;;1.08
68952;BMP180;56000;51.146;17.112;2023-03-08T04:29:19;98641.20;;;1.00
68952;BMP180;56000;51.146;17.112;2023-03-08T04:31:49;98634.60;;;1.00
68952;BMP180;56000;51.146;17.112;2023-03-08T04:34:20;98648.40;;;1.00
68952;BMP180;56000;51.146;17.112;2023-03-08T04:36:51;98645.20;;;1.00
68952;BMP180;56000;51.146;17.112;2023-03-08T04:39:22;98633.60;;;1.00
68952;BMP180;56000;51.146;17.112;2023-03-08T04:41:52;98625.40;;;1.00
68952;BMP180;56000;51.146;17.112;2023-03-08T04:44:31;98631.80;;;1.02
68952;BMP180;56000;51.146;17.112;2023-03-08T04:47:01;98636.20;;;1.10
68952;BMP180;56000;51.146;17.112;2023-03-08T04:49:37;98634.80;;;1.08
68952;BMP180;56000;51.146;17.112;2023-03-08T04:52:07;98635.60;;;1.08
68952;BMP180;56000;51.146;17.112;2023-03-08T04:54:38;98632.20;;;1.10
68952;BMP180;56000;51.146;17.112;2023-03-08T04:57:26;98638.60;;;1.10
68952;BMP180;56000;51.146;17.112;2023-03-08T04:59:57;98649.80;;;1.10
68952;BMP180;56000;51.146;17.112;2023-03-08T05:02:27;98651.40;;;1.10
68952;BMP180;56000;51.146;17.112;2023-03-08T05:04:58;98659.20;;;1.10
68952;BMP180;56000;51.146;17.112;2023-03-08T05:07:28;98663.80;;;1.10
68952;BMP180;56000;51.146;17.112;2023-03-08T05:09:59;98654.60;;;1.10
68952;BMP180;56000;51.146;17.112;2023-03-08T05:12:29;98657.20;;;1.10
68952;BMP180;56000;51.146;17.112;2023-03-08T05:15:00;98651.60;;;1.10
68952;BMP180;56000;51.146;17.112;2023-03-08T05:17:30;98651.20;;;1.10
68952;BMP180;56000;51.146;17.112;2023-03-08T05:19:59;98651.00;;;1.10
68952;BMP180;56000;51.146;17.112;2023-03-08T05:22:34;98658.20;;;1.10
68952;BMP180;56000;51.146;17.112;2023-03-08T05:25:24;98667.80;;;1.10
68952;BMP180;56000;51.146;17.112;2023-03-08T05:27:54;98676.80;;;1.12
68952;BMP180;56000;51.146;17.112;2023-03-08T05:30:24;98669.60;;;1.16
68952;BMP180;56000;51.146;17.112;2023-03-08T05:32:54;98670.60;;;1.20
68952;BMP180;56000;51.146;17.112;2023-03-08T05:35:23;98667.00;;;1.20
68952;BMP180;56000;51.146;17.112;2023-03-08T05:37:53;98668.80;;;1.20
68952;BMP180;56000;51.146;17.112;2023-03-08T05:40:23;98673.80;;;1.20
68952;BMP180;56000;51.146;17.112;2023-03-08T05:42:54;98683.00;;;1.20
68952;BMP180;56000;51.146;17.112;2023-03-08T05:45:25;98685.00;;;1.28
68952;BMP180;56000;51.146;17.112;2023-03-08T05:47:55;98688.60;;;1.30
68952;BMP180;56000;51.146;17.112;2023-03-08T05:50:26;98689.80;;;1.30
68952;BMP180;56000;51.146;17.112;2023-03-08T05:52:55;98696.60;;;1.30
68952;BMP180;56000;51.146;17.112;2023-03-08T05:55:28;98707.60;;;1.38
68952;BMP180;56000;51.146;17.112;2023-03-08T05:57:58;98700.20;;;1.40
68952;BMP180;56000;51.146;17.112;2023-03-08T06:00:28;98695.60;;;1.40
68952;BMP180;56000;51.146;17.112;2023-03-08T06:03:00;98696.60;;;1.42
68952;BMP180;56000;51.146;17.112;2023-03-08T06:05:32;98697.80;;;1.50
68952;BMP180;56000;51.146;17.112;2023-03-08T06:08:02;98698.00;;;1.50
68952;BMP180;56000;51.146;17.112;2023-03-08T06:10:32;98701.60;;;1.58
68952;BMP180;56000;51.146;17.112;2023-03-08T06:13:02;98704.00;;;1.60
68952;BMP180;56000;51.146;17.112;2023-03-08T06:15:32;98711.20;;;1.62
68952;BMP180;56000;51.146;17.112;2023-03-08T06:18:02;98702.00;;;1.70
68952;BMP180;56000;51.146;17.112;2023-03-08T06:20:33;98704.00;;;1.72
68952;BMP180;56000;51.146;17.112;2023-03-08T06:23:02;98698.40;;;1.80
68952;BMP180;56000;51.146;17.112;2023-03-08T06:25:32;98704.00;;;1.80
68952;BMP180;56000;51.146;17.112;2023-03-08T06:28:02;98712.00;;;1.82
68952;BMP180;56000;51.146;17.112;2023-03-08T06:30:37;98718.20;;;1.90
68952;BMP180;56000;51.146;17.112;2023-03-08T06:33:07;98718.20;;;2.00
68952;BMP180;56000;51.146;17.112;2023-03-08T06:35:37;98726.20;;;2.00
68952;BMP180;56000;51.146;17.112;2023-03-08T06:38:07;98729.20;;;2.10
68952;BMP180;56000;51.146;17.112;2023-03-08T06:40:37;98724.60;;;2.16
68952;BMP180;56000;51.146;17.112;2023-03-08T06:43:07;98724.40;;;2.20
68952;BMP180;56000;51.146;17.112;2023-03-08T06:45:39;98726.20;;;2.30
68952;BMP180;56000;51.146;17.112;2023-03-08T06:48:09;98728.80;;;2.30
68952;BMP180;56000;51.146;17.112;2023-03-08T06:50:52;98732.00;;;2.40
68952;BMP180;56000;51.146;17.112;2023-03-08T06:53:23;98732.00;;;2.50
68952;BMP180;56000;51.146;17.112;2023-03-08T06:56:04;98738.00;;;2.56
68952;BMP180;56000;51.146;17.112;2023-03-08T06:58:35;98736.40;;;2.60
68952;BMP180;56000;51.146;17.112;2023-03-08T07:01:04;98745.60;;;2.70
68952;BMP180;56000;51.146;17.112;2023-03-08T07:03:34;98746.00;;;2.72
68952;BMP180;56000;51.146;17.112;2023-03-08T07:06:07;98745.60;;;2.80
68952;BMP180;56000;51.146;17.112;2023-03-08T07:08:38;98738.00;;;2.90
68952;BMP180;56000;51.146;17.112;2023-03-08T07:11:07;98743.80;;;2.90
68952;BMP180;56000;51.146;17.112;2023-03-08T07:13:37;98724.20;;;2.96
68952;BMP180;56000;51.146;17.112;2023-03-08T07:16:10;98741.60;;;3.00
68952;BMP180;56000;51.146;17.112;2023-03-08T07:18:41;98744.80;;;3.10
68952;BMP180;56000;51.146;17.112;2023-03-08T07:21:11;98746.00;;;3.10
68952;BMP180;56000;51.146;17.112;2023-03-08T07:23:41;98742.00;;;3.10
68952;BMP180;56000;51.146;17.112;2023-03-08T07:26:11;98743.00;;;3.10
68952;BMP180;56000;51.146;17.112;2023-03-08T07:28:40;98750.80;;;3.10
68952;BMP180;56000;51.146;17.112;2023-03-08T07:31:11;98755.20;;;3.20
68952;BMP180;56000;51.146;17.112;2023-03-08T07:33:41;98758.40;;;3.30
68952;BMP180;56000;51.146;17.112;2023-03-08T07:36:11;98760.40;;;3.30
68952;BMP180;56000;51.146;17.112;2023-03-08T07:38:41;98758.00;;;3.30
68952;BMP180;56000;51.146;17.112;2023-03-08T07:41:11;98760.00;;;3.38
68952;BMP180;56000;51.146;17.112;2023-03-08T07:43:41;98772.20;;;3.50
68952;BMP180;56000;51.146;17.112;2023-03-08T07:46:15;98771.20;;;3.60
68952;BMP180;56000;51.146;17.112;2023-03-08T07:48:45;98774.00;;;3.70
68952;BMP180;56000;51.146;17.112;2023-03-08T07:51:15;98771.80;;;3.80
68952;BMP180;56000;51.146;17.112;2023-03-08T07:53:45;98770.40;;;3.90
68952;BMP180;56000;51.146;17.112;2023-03-08T07:56:15;98768.40;;;4.00
68952;BMP180;56000;51.146;17.112;2023-03-08T07:58:45;98761.80;;;4.00
68952;BMP180;56000;51.146;17.112;2023-03-08T08:01:15;98760.40;;;4.10
68952;BMP180;56000;51.146;17.112;2023-03-08T08:03:45;98766.60;;;4.20
68952;BMP180;56000;51.146;17.112;2023-03-08T08:06:15;98769.60;;;4.30
68952;BMP180;56000;51.146;17.112;2023-03-08T08:08:45;98762.40;;;4.30
68952;BMP180;56000;51.146;17.112;2023-03-08T08:11:17;98752.40;;;4.38
68952;BMP180;56000;51.146;17.112;2023-03-08T08:13:47;98759.60;;;4.40
68952;BMP180;56000;51.146;17.112;2023-03-08T08:16:18;98759.20;;;4.50
68952;BMP180;56000;51.146;17.112;2023-03-08T08:18:49;98761.60;;;4.62
68952;BMP180;56000;51.146;17.112;2023-03-08T08:21:20;98766.60;;;4.78
68952;BMP180;56000;51.146;17.112;2023-03-08T08:23:49;98765.20;;;4.84
68952;BMP180;56000;51.146;17.112;2023-03-08T08:26:21;98771.20;;;4.90
68952;BMP180;56000;51.146;17.112;2023-03-08T08:28:53;98772.60;;;4.90
68952;BMP180;56000;51.146;17.112;2023-03-08T08:31:26;98774.20;;;4.90
68952;BMP180;56000;51.146;17.112;2023-03-08T08:33:59;98776.80;;;4.88
68952;BMP180;56000;51.146;17.112;2023-03-08T08:36:29;98778.60;;;4.80
68952;BMP180;56000;51.146;17.112;2023-03-08T08:38:59;98777.20;;;4.88
68952;BMP180;56000;51.146;17.112;2023-03-08T08:41:29;98774.60;;;4.80
68952;BMP180;56000;51.146;17.112;2023-03-08T08:44:01;98767.80;;;4.80
68952;BMP180;56000;51.146;17.112;2023-03-08T08:46:31;98764.00;;;4.72
68952;BMP180;56000;51.146;17.112;2023-03-08T08:49:03;98759.00;;;4.70
68952;BMP180;56000;51.146;17.112;2023-03-08T08:51:33;98766.60;;;4.66
68952;BMP180;56000;51.146;17.112;2023-03-08T08:54:04;98765.60;;;4.70
68952;BMP180;56000;51.146;17.112;2023-03-08T08:56:34;98750.60;;;4.80
68952;BMP180;56000;51.146;17.112;2023-03-08T08:59:12;98743.80;;;4.80
68952;BMP180;56000;51.146;17.112;2023-03-08T09:01:44;98756.80;;;4.90
68952;BMP180;56000;51.146;17.112;2023-03-08T09:04:15;98749.40;;;5.00
68952;BMP180;56000;51.146;17.112;2023-03-08T09:06:44;98749.60;;;5.10
68952;BMP180;56000;51.146;17.112;2023-03-08T09:09:16;98754.00;;;5.20
68952;BMP180;56000;51.146;17.112;2023-03-08T09:11:46;98758.80;;;5.30
68952;BMP180;56000;51.146;17.112;2023-03-08T09:14:24;98748.80;;;5.50
68952;BMP180;56000;51.146;17.112;2023-03-08T09:16:54;98749.00;;;6.04
68952;BMP180;56000;51.146;17.112;2023-03-08T09:19:24;98743.80;;;6.68
68952;BMP180;56000;51.146;17.112;2023-03-08T09:21:54;98744.20;;;6.90
68952;BMP180;56000;51.146;17.112;2023-03-08T09:24:24;98743.60;;;7.00
68952;BMP180;56000;51.146;17.112;2023-03-08T09:26:53;98738.40;;;7.20
68952;BMP180;56000;51.146;17.112;2023-03-08T09:29:23;98738.40;;;7.20
68952;BMP180;56000;51.146;17.112;2023-03-08T09:31:53;98741.00;;;7.06
68952;BMP180;56000;51.146;17.112;2023-03-08T09:34:24;98736.40;;;6.90
68952;BMP180;56000;51.146;17.112;2023-03-08T09:36:54;98735.40;;;7.12
68952;BMP180;56000;51.146;17.112;2023-03-08T09:39:24;98736.40;;;8.14
68952;BMP180;56000;51.146;17.112;2023-03-08T09:41:57;98723.60;;;8.20
68952;BMP180;56000;51.146;17.112;2023-03-08T09:45:03;98728.00;;;8.10
68952;BMP180;56000;51.146;17.112;2023-03-08T09:47:45;98732.80;;;8.00
68952;BMP180;56000;51.146;17.112;2023-03-08T09:50:33;98727.20;;;7.88
68952;BMP180;56000;51.146;17.112;2023-03-08T09:53:12;98720.80;;;7.70
68952;BMP180;56000;51.146;17.112;2023-03-08T09:55:50;98721.20;;;7.80
68952;BMP180;56000;51.146;17.112;2023-03-08T09:58:31;98721.20;;;7.86
68952;BMP180;56000;51.146;17.112;2023-03-08T10:01:05;98712.60;;;7.94
68952;BMP180;56000;51.146;17.112;2023-03-08T10:04:00;98708.40;;;8.24
68952;BMP180;56000;51.146;17.112;2023-03-08T10:06:37;98706.60;;;8.30
68952;BMP180;56000;51.146;17.112;2023-03-08T10:09:23;98698.20;;;8.68
68952;BMP180;56000;51.146;17.112;2023-03-08T10:12:02;98696.80;;;9.00
68952;BMP180;56000;51.146;17.112;2023-03-08T10:14:45;98689.20;;;9.76
68952;BMP180;56000;51.146;17.112;2023-03-08T10:17:19;98684.80;;;10.86
68952;BMP180;56000;51.146;17.112;2023-03-08T10:19:55;98677.20;;;11.92
68952;BMP180;56000;51.146;17.112;2023-03-08T10:22:29;98684.60;;;12.70
68952;BMP180;56000;51.146;17.112;2023-03-08T10:25:03;98683.80;;;12.60
68952;BMP180;56000;51.146;17.112;2023-03-08T10:27:34;98681.00;;;12.30
68952;BMP180;56000;51.146;17.112;2023-03-08T10:30:15;98682.20;;;12.10
68952;BMP180;56000;51.146;17.112;2023-03-08T10:32:45;98679.60;;;11.38
68952;BMP180;56000;51.146;17.112;2023-03-08T10:35:17;98675.60;;;10.70
68952;BMP180;56000;51.146;17.112;2023-03-08T10:37:51;98680.40;;;10.50
68952;BMP180;56000;51.146;17.112;2023-03-08T10:40:22;98678.00;;;10.06
68952;BMP180;56000;51.146;17.112;2023-03-08T10:42:58;98670.40;;;9.56
68952;BMP180;56000;51.146;17.112;2023-03-08T10:45:30;98672.20;;;9.06
68952;BMP180;56000;51.146;17.112;2023-03-08T10:48:02;98662.00;;;8.56
68952;BMP180;56000;51.146;17.112;2023-03-08T10:50:34;98670.00;;;8.26
68952;BMP180;56000;51.146;17.112;2023-03-08T10:53:15;98664.80;;;7.96
68952;BMP180;56000;51.146;17.112;2023-03-08T10:55:48;98672.60;;;7.64
68952;BMP180;56000;51.146;17.112;2023-03-08T10:58:32;98666.20;;;7.40
68952;BMP180;56000;51.146;17.112;2023-03-08T11:01:21;98662.80;;;7.30
68952;BMP180;56000;51.146;17.112;2023-03-08T11:04:02;98658.20;;;7.38
68952;BMP180;56000;51.146;17.112;2023-03-08T11:06:33;98654.60;;;7.42
68952;BMP180;56000;51.146;17.112;2023-03-08T11:09:17;98654.40;;;7.30
68952;BMP180;56000;51.146;17.112;2023-03-08T11:11:47;98651.00;;;7.10
68952;BMP180;56000;51.146;17.112;2023-03-08T11:14:17;98647.60;;;6.86
68952;BMP180;56000;51.146;17.112;2023-03-08T11:17:03;98648.00;;;6.70
68952;BMP180;56000;51.146;17.112;2023-03-08T11:19:54;98637.40;;;6.50
68952;BMP180;56000;51.146;17.112;2023-03-08T11:25:44;98626.40;;;6.30
68952;BMP180;56000;51.146;17.112;2023-03-08T11:28:54;98620.00;;;6.30
68952;BMP180;56000;51.146;17.112;2023-03-08T11:31:34;98615.40;;;6.32
68952;BMP180;56000;51.146;17.112;2023-03-08T11:34:31;98613.20;;;6.20
68952;BMP180;56000;51.146;17.112;2023-03-08T11:37:12;98609.80;;;5.94
68952;BMP180;56000;51.146;17.112;2023-03-08T11:39:48;98606.80;;;5.90
68952;BMP180;56000;51.146;17.112;2023-03-08T11:42:27;98604.80;;;5.90
68952;BMP180;56000;51.146;17.112;2023-03-08T11:45:16;98602.60;;;5.90
68952;BMP180;56000;51.146;17.112;2023-03-08T11:48:10;98596.20;;;5.90
68952;BMP180;56000;51.146;17.112;2023-03-08T11:50:48;98600.60;;;5.80
68952;BMP180;56000;51.146;17.112;2023-03-08T11:53:30;98596.00;;;5.70
68952;BMP180;56000;51.146;17.112;2023-03-08T11:56:15;98591.20;;;5.60
68952;BMP180;56000;51.146;17.112;2023-03-08T11:58:52;98589.40;;;5.50
68952;BMP180;56000;51.146;17.112;2023-03-08T12:01:28;98586.00;;;5.50
68952;BMP180;56000;51.146;17.112;2023-03-08T12:04:07;98579.80;;;5.50
68952;BMP180;56000;51.146;17.112;2023-03-08T12:06:40;98571.00;;;5.72
68952;BMP180;56000;51.146;17.112;2023-03-08T12:09:21;98572.20;;;6.04
68952;BMP180;56000;51.146;17.112;2023-03-08T12:12:00;98564.20;;;6.48
68952;BMP180;56000;51.146;17.112;2023-03-08T12:14:43;98559.40;;;6.80
68952;BMP180;56000;51.146;17.112;2023-03-08T12:17:19;98548.20;;;7.18
68952;BMP180;56000;51.146;17.112;2023-03-08T12:19:51;98551.80;;;7.40
68952;BMP180;56000;51.146;17.112;2023-03-08T12:22:39;98549.60;;;7.30
68952;BMP180;56000;51.146;17.112;2023-03-08T12:25:21;98547.20;;;7.30
68952;BMP180;56000;51.146;17.112;2023-03-08T12:27:57;98542.60;;;7.28
68952;BMP180;56000;51.146;17.112;2023-03-08T12:30:41;98535.60;;;7.20
68952;BMP180;56000;51.146;17.112;2023-03-08T12:33:15;98531.40;;;7.10
68952;BMP180;56000;51.146;17.112;2023-03-08T12:35:56;98522.80;;;7.10
68952;BMP180;56000;51.146;17.112;2023-03-08T12:38:38;98522.60;;;7.00
68952;BMP180;56000;51.146;17.112;2023-03-08T12:41:24;98520.60;;;6.98
68952;BMP180;56000;51.146;17.112;2023-03-08T12:44:02;98513.40;;;6.90
68952;BMP180;56000;51.146;17.112;2023-03-08T12:46:48;98512.60;;;6.90
68952;BMP180;56000;51.146;17.112;2023-03-08T12:49:36;98503.40;;;6.80
68952;BMP180;56000;51.146;17.112;2023-03-08T12:52:23;98501.40;;;6.72
68952;BMP180;56000;51.146;17.112;2023-03-08T12:55:01;98499.60;;;6.70
68952;BMP180;56000;51.146;17.112;2023-03-08T12:57:33;98489.80;;;6.70
68952;BMP180;56000;51.146;17.112;2023-03-08T13:00:24;98491.40;;;6.60
68952;BMP180;56000;51.146;17.112;2023-03-08T13:03:04;98480.60;;;6.60
68952;BMP180;56000;51.146;17.112;2023-03-08T13:05:36;98476.20;;;6.60
68952;BMP180;56000;51.146;17.112;2023-03-08T13:08:27;98474.00;;;6.60
68952;BMP180;56000;51.146;17.112;2023-03-08T13:11:04;98469.80;;;6.60
68952;BMP180;56000;51.146;17.112;2023-03-08T13:13:44;98463.00;;;6.60
68952;BMP180;56000;51.146;17.112;2023-03-08T13:16:29;98461.00;;;6.40
68952;BMP180;56000;51.146;17.112;2023-03-08T13:19:16;98461.60;;;6.30
68952;BMP180;56000;51.146;17.112;2023-03-08T13:21:57;98449.00;;;6.50
68952;BMP180;56000;51.146;17.112;2023-03-08T13:24:41;98447.60;;;6.76
68952;BMP180;56000;51.146;17.112;2023-03-08T13:27:28;98441.80;;;7.00
68952;BMP180;56000;51.146;17.112;2023-03-08T13:30:19;98437.80;;;7.10
68952;BMP180;56000;51.146;17.112;2023-03-08T13:32:51;98445.20;;;7.14
68952;BMP180;56000;51.146;17.112;2023-03-08T13:35:20;98437.20;;;7.02
68952;BMP180;56000;51.146;17.112;2023-03-08T13:37:56;98430.00;;;6.88
68952;BMP180;56000;51.146;17.112;2023-03-08T13:40:29;98424.40;;;6.80
68952;BMP180;56000;51.146;17.112;2023-03-08T13:43:01;98423.80;;;6.60
68952;BMP180;56000;51.146;17.112;2023-03-08T13:45:33;98411.40;;;6.40
68952;BMP180;56000;51.146;17.112;2023-03-08T13:48:07;98415.20;;;6.30
68952;BMP180;56000;51.146;17.112;2023-03-08T13:50:44;98410.40;;;6.20
68952;BMP180;56000;51.146;17.112;2023-03-08T13:53:18;98410.40;;;6.20
68952;BMP180;56000;51.146;17.112;2023-03-08T13:55:51;98408.40;;;6.20
68952;BMP180;56000;51.146;17.112;2023-03-08T13:58:32;98406.80;;;6.20
68952;BMP180;56000;51.146;17.112;2023-03-08T14:01:10;98399.40;;;6.20
68952;BMP180;56000;51.146;17.112;2023-03-08T14:03:42;98398.80;;;6.30
68952;BMP180;56000;51.146;17.112;2023-03-08T14:06:20;98396.60;;;6.20
68952;BMP180;56000;51.146;17.112;2023-03-08T14:08:51;98393.80;;;6.10
68952;BMP180;56000;51.146;17.112;2023-03-08T14:11:25;98383.20;;;6.10
68952;BMP180;56000;51.146;17.112;2023-03-08T14:13:58;98383.40;;;6.00
68952;BMP180;56000;51.146;17.112;2023-03-08T14:16:33;98382.80;;;5.92
68952;BMP180;56000;51.146;17.112;2023-03-08T14:19:21;98381.80;;;5.90
68952;BMP180;56000;51.146;17.112;2023-03-08T14:21:54;98373.40;;;5.80
68952;BMP180;56000;51.146;17.112;2023-03-08T14:24:28;98371.80;;;5.80
68952;BMP180;56000;51.146;17.112;2023-03-08T14:27:01;98372.80;;;5.80
68952;BMP180;56000;51.146;17.112;2023-03-08T14:29:32;98372.20;;;5.80
68952;BMP180;56000;51.146;17.112;2023-03-08T14:32:22;98361.60;;;5.90
68952;BMP180;56000;51.146;17.112;2023-03-08T14:35:06;98364.20;;;5.90
68952;BMP180;56000;51.146;17.112;2023-03-08T14:37:45;98364.00;;;5.90
68952;BMP180;56000;51.146;17.112;2023-03-08T14:40:31;98356.80;;;5.90
68952;BMP180;56000;51.146;17.112;2023-03-08T14:43:05;98359.60;;;5.90
68952;BMP180;56000;51.146;17.112;2023-03-08T14:45:53;98355.00;;;5.90
68952;BMP180;56000;51.146;17.112;2023-03-08T14:48:27;98356.40;;;5.90
68952;BMP180;56000;51.146;17.112;2023-03-08T14:51:00;98360.40;;;5.90